Time;durP1;ratioP1;P1;durP2;ratioP2;P2;SDS_P1;SDS_P2;PMS_P1;PMS_P2;Temp;Humidity;BMP_temperature;BMP_pressure;BME280_temperature;BME280_humidity;BME280_pressure;Samples;Min_cycle;Max_cycle;Signal;HPM_P1;HPM_P2
2023/03/18 00:00:40;;;;;;;7.97;5.80;;;4.80;77.70;;;;;;5074201;28;20171;-73
2023/03/18 00:03:06;;;;;;;9.07;5.90;;;4.80;77.00;;;;;;5074064;28;20201;-83
2023/03/18 00:05:33;;;;;;;9.13;5.63;;;4.60;77.20;;;;;;5073859;28;20179;-77
2023/03/18 00:08:00;;;;;;;6.90;5.33;;;4.60;77.70;;;;;;5074022;28;20643;-83
2023/03/18 00:10:27;;;;;;;9.77;5.20;;;4.60;78.10;;;;;;5074927;28;20184;-81
2023/03/18 00:12:53;;;;;;;7.73;6.00;;;4.50;78.30;;;;;;5074772;28;20218;-81
2023/03/18 00:15:19;;;;;;;8.70;5.90;;;4.40;78.60;;;;;;5073534;28;20534;-75
2023/03/18 00:17:47;;;;;;;8.40;5.33;;;4.40;78.80;;;;;;5072990;28;20177;-77
2023/03/18 00:20:15;;;;;;;8.37;5.37;;;4.50;78.80;;;;;;5073206;28;20292;-75
2023/03/18 00:22:42;;;;;;;10.10;6.20;;;4.50;78.80;;;;;;5074400;28;20183;-74
2023/03/18 00:25:10;;;;;;;7.83;5.80;;;4.40;79.40;;;;;;5073531;28;20236;-77
2023/03/18 00:27:37;;;;;;;8.70;5.90;;;4.40;79.20;;;;;;5073340;28;20185;-75
2023/03/18 00:30:04;;;;;;;7.40;5.00;;;4.40;79.30;;;;;;5073566;28;20589;-75
2023/03/18 00:32:31;;;;;;;8.13;5.77;;;4.20;79.20;;;;;;5078538;28;20229;-73
2023/03/18 00:34:57;;;;;;;9.03;5.60;;;4.30;79.60;;;;;;5076185;28;20211;-73
2023/03/18 00:37:30;;;;;;;6.77;5.17;;;4.20;79.60;;;;;;5077398;28;20674;-76
2023/03/18 00:40:05;;;;;;;6.90;5.60;;;4.30;79.50;;;;;;5086718;28;20178;-80
2023/03/18 00:42:37;;;;;;;13.13;6.00;;;4.30;80.60;;;;;;5070304;28;20243;-81
2023/03/18 00:45:05;;;;;;;8.73;5.40;;;4.20;80.00;;;;;;5088005;28;20219;-76
2023/03/18 00:47:31;;;;;;;9.10;6.00;;;4.20;80.00;;;;;;5078077;28;20197;-83
2023/03/18 00:49:57;;;;;;;7.67;5.57;;;4.10;80.10;;;;;;5077149;28;20169;-81
2023/03/18 00:52:24;;;;;;;9.47;5.70;;;4.10;79.90;;;;;;5075460;28;20203;-87
2023/03/18 00:54:50;;;;;;;11.87;5.40;;;4.10;80.10;;;;;;5076281;28;20170;-85
2023/03/18 00:57:16;;;;;;;10.53;5.30;;;4.10;80.00;;;;;;5076782;28;20233;-88
2023/03/18 00:59:42;;;;;;;8.53;5.67;;;4.00;80.00;;;;;;5080452;28;20300;-87
2023/03/18 01:02:08;;;;;;;7.07;5.53;;;4.00;79.70;;;;;;5076403;28;20691;-81
2023/03/18 01:04:33;;;;;;;9.40;5.77;;;4.00;80.30;;;;;;5081184;28;20234;-76
2023/03/18 01:07:00;;;;;;;8.47;5.87;;;4.00;80.20;;;;;;5074056;28;20185;-86
2023/03/18 01:09:26;;;;;;;8.47;5.50;;;3.90;80.50;;;;;;5073544;28;20646;-86
2023/03/18 01:11:52;;;;;;;9.10;5.30;;;3.80;80.70;;;;;;5074372;28;20219;-86
2023/03/18 01:14:18;;;;;;;9.40;6.23;;;3.90;80.70;;;;;;5074225;28;20584;-86
2023/03/18 01:16:45;;;;;;;6.90;5.27;;;3.80;80.70;;;;;;5074104;28;20553;-87
2023/03/18 01:19:12;;;;;;;8.07;5.23;;;3.80;80.80;;;;;;5074049;28;20171;-86
2023/03/18 01:21:38;;;;;;;7.53;5.33;;;3.80;81.00;;;;;;5055136;28;20179;-84
2023/03/18 01:24:04;;;;;;;7.83;5.67;;;3.80;80.90;;;;;;5073329;28;20258;-85
2023/03/18 01:26:31;;;;;;;6.60;5.13;;;3.70;80.90;;;;;;5073242;28;20710;-73
2023/03/18 01:28:57;;;;;;;6.60;4.67;;;3.70;80.60;;;;;;5073682;28;20175;-76
2023/03/18 01:31:24;;;;;;;7.20;5.20;;;3.70;80.90;;;;;;5073475;28;20197;-74
2023/03/18 01:33:50;;;;;;;8.53;5.80;;;3.90;80.90;;;;;;5055377;28;20214;-76
2023/03/18 01:36:16;;;;;;;8.20;5.20;;;3.70;80.70;;;;;;5054963;28;20266;-83
2023/03/18 01:38:42;;;;;;;7.10;5.33;;;3.80;81.30;;;;;;5073058;28;20172;-82
2023/03/18 01:41:10;;;;;;;7.50;5.57;;;3.80;80.70;;;;;;5073109;28;20654;-80
2023/03/18 01:43:39;;;;;;;8.43;5.33;;;3.70;80.90;;;;;;5073154;28;20179;-85
2023/03/18 01:46:29;;;;;;;7.50;5.03;;;3.70;81.00;;;;;;5073574;28;20186;-85
2023/03/18 01:48:56;;;;;;;9.07;5.03;;;3.60;80.90;;;;;;5073247;28;20245;-78
2023/03/18 01:51:25;;;;;;;9.50;5.40;;;3.70;81.10;;;;;;5073139;28;20248;-84
2023/03/18 01:53:52;;;;;;;8.67;5.37;;;3.70;81.20;;;;;;5084439;28;20205;-81
2023/03/18 01:56:19;;;;;;;5.77;4.97;;;3.60;81.30;;;;;;5076805;28;20237;-74
2023/03/18 01:58:49;;;;;;;6.10;5.10;;;3.50;81.60;;;;;;5074354;28;20197;-75
2023/03/18 02:01:24;;;;;;;8.33;5.30;;;3.40;81.80;;;;;;5077546;28;20179;-74
2023/03/18 02:03:51;;;;;;;6.50;5.13;;;3.50;82.10;;;;;;5077670;28;20173;-77
2023/03/18 02:06:18;;;;;;;6.63;5.13;;;3.40;82.10;;;;;;5079118;28;20179;-75
2023/03/18 02:08:44;;;;;;;6.27;4.90;;;3.30;82.10;;;;;;5076251;28;20257;-74
2023/03/18 02:11:10;;;;;;;6.20;4.83;;;3.30;82.10;;;;;;5076228;28;20216;-74
2023/03/18 02:13:40;;;;;;;9.87;5.57;;;3.40;82.00;;;;;;5071488;28;20197;-73
2023/03/18 02:16:16;;;;;;;6.67;4.60;;;3.40;82.00;;;;;;5082117;28;20200;-83
2023/03/18 02:18:47;;;;;;;7.23;5.20;;;3.40;81.90;;;;;;5059730;28;20205;-86
2023/03/18 02:21:39;;;;;;;7.50;4.47;;;3.40;81.90;;;;;;5077160;28;20166;-87
2023/03/18 02:24:34;;;;;;;6.33;4.90;;;3.30;81.80;;;;;;5077042;28;20592;-86
2023/03/18 02:27:16;;;;;;;7.47;4.43;;;3.40;82.20;;;;;;5034256;28;20538;-84
2023/03/18 02:29:43;;;;;;;6.47;4.67;;;3.30;82.20;;;;;;5078322;28;20284;-84
2023/03/18 02:32:10;;;;;;;6.20;4.97;;;3.30;82.30;;;;;;5079739;28;20213;-85
2023/03/18 02:34:39;;;;;;;6.60;5.17;;;3.30;82.20;;;;;;5083110;28;20166;-75
2023/03/18 02:37:06;;;;;;;5.23;4.67;;;3.30;81.90;;;;;;5098384;28;20181;-77
2023/03/18 02:39:32;;;;;;;6.73;4.83;;;3.30;82.10;;;;;;5107423;28;20188;-81
2023/03/18 02:41:59;;;;;;;6.10;4.60;;;3.40;81.90;;;;;;5105462;28;20191;-83
2023/03/18 02:44:26;;;;;;;6.77;4.77;;;3.40;81.60;;;;;;5107861;28;20232;-82
2023/03/18 02:46:54;;;;;;;6.03;4.63;;;3.40;81.60;;;;;;5096366;28;20213;-84
2023/03/18 02:49:22;;;;;;;8.30;5.30;;;3.40;81.70;;;;;;5089163;28;20181;-83
2023/03/18 02:51:50;;;;;;;6.40;4.97;;;3.40;81.60;;;;;;5103734;28;20214;-84
2023/03/18 02:54:20;;;;;;;5.23;4.27;;;3.30;82.20;;;;;;5098472;28;20234;-87
2023/03/18 02:56:47;;;;;;;7.50;5.00;;;3.40;82.10;;;;;;5096740;28;20706;-85
2023/03/18 02:59:13;;;;;;;7.97;4.47;;;3.30;82.10;;;;;;5096413;28;20175;-83
2023/03/18 03:01:41;;;;;;;6.43;4.60;;;3.30;82.00;;;;;;5096613;28;20173;-83
2023/03/18 03:04:07;;;;;;;5.07;4.57;;;3.30;82.10;;;;;;5096464;28;20201;-80
2023/03/18 03:06:34;;;;;;;5.60;4.73;;;3.20;82.30;;;;;;5096675;28;20178;-85
2023/03/18 03:09:02;;;;;;;6.80;4.67;;;3.20;82.50;;;;;;5096731;28;20166;-85
2023/03/18 03:11:28;;;;;;;7.57;4.83;;;3.20;82.40;;;;;;5095165;28;20293;-86
2023/03/18 03:13:54;;;;;;;7.43;4.97;;;3.20;82.50;;;;;;5096328;28;20209;-86
2023/03/18 03:16:21;;;;;;;6.93;4.50;;;3.10;82.60;;;;;;5096499;28;20574;-88
2023/03/18 03:18:47;;;;;;;6.23;4.47;;;3.00;83.00;;;;;;5096738;28;20178;-85
2023/03/18 03:21:14;;;;;;;6.33;4.80;;;3.10;83.00;;;;;;5078756;28;20229;-85
2023/03/18 03:23:40;;;;;;;8.97;4.53;;;3.10;83.20;;;;;;5094980;28;20621;-73
2023/03/18 03:26:06;;;;;;;8.13;5.17;;;3.10;82.80;;;;;;5100708;28;20178;-74
2023/03/18 03:28:32;;;;;;;5.70;4.40;;;3.10;83.00;;;;;;5076665;28;20193;-76
2023/03/18 03:30:59;;;;;;;8.27;4.43;;;3.10;82.80;;;;;;5076040;28;20188;-75
2023/03/18 03:33:26;;;;;;;10.33;5.03;;;3.10;83.10;;;;;;5094337;28;20201;-75
2023/03/18 03:35:52;;;;;;;6.73;5.20;;;3.10;83.20;;;;;;5087928;28;20171;-79
2023/03/18 03:38:18;;;;;;;5.80;4.63;;;3.00;83.30;;;;;;5106336;28;20206;-84
2023/03/18 03:40:45;;;;;;;7.20;4.40;;;2.90;83.50;;;;;;5079586;28;20206;-87
2023/03/18 03:43:13;;;;;;;7.93;4.80;;;2.90;83.30;;;;;;5095438;28;20592;-83
2023/03/18 03:45:39;;;;;;;8.03;4.73;;;2.90;83.40;;;;;;5095191;28;20570;-84
2023/03/18 03:48:05;;;;;;;7.83;4.83;;;2.90;83.60;;;;;;5097497;28;20649;-82
2023/03/18 03:50:31;;;;;;;5.67;4.47;;;2.80;83.80;;;;;;5098694;28;20163;-85
2023/03/18 03:52:57;;;;;;;7.20;5.03;;;2.80;83.90;;;;;;5094883;28;20294;-83
2023/03/18 03:55:23;;;;;;;6.77;5.10;;;2.80;83.90;;;;;;5076097;28;20695;-88
2023/03/18 03:57:50;;;;;;;5.20;4.23;;;2.70;84.10;;;;;;5094879;28;20664;-81
2023/03/18 04:00:20;;;;;;;8.03;4.83;;;2.80;84.30;;;;;;5094323;28;20174;-82
2023/03/18 04:02:47;;;;;;;8.43;4.70;;;2.80;84.10;;;;;;5076246;28;20191;-76
2023/03/18 04:05:16;;;;;;;5.73;4.67;;;2.90;83.90;;;;;;5076260;28;20201;-83
2023/03/18 04:07:42;;;;;;;4.93;4.20;;;2.90;84.00;;;;;;5094842;28;20246;-78
2023/03/18 04:10:10;;;;;;;7.07;4.20;;;2.80;84.00;;;;;;5093939;28;20630;-77
2023/03/18 04:12:37;;;;;;;9.53;4.80;;;2.70;84.10;;;;;;5095097;28;20569;-83
2023/03/18 04:15:03;;;;;;;7.17;4.30;;;2.60;84.30;;;;;;5104757;28;20253;-79
2023/03/18 04:17:29;;;;;;;6.20;4.60;;;2.60;84.50;;;;;;5095883;28;20692;-81
2023/03/18 04:19:55;;;;;;;5.10;4.53;;;2.50;84.80;;;;;;5094783;28;20182;-87
2023/03/18 04:22:21;;;;;;;9.37;4.50;;;2.70;84.50;;;;;;5094029;28;20182;-80
2023/03/18 04:24:47;;;;;;;5.43;4.17;;;2.60;84.40;;;;;;5075902;28;20250;-86
2023/03/18 04:27:13;;;;;;;5.63;4.50;;;2.70;84.40;;;;;;5094058;28;20180;-85
2023/03/18 04:29:38;;;;;;;4.83;4.43;;;2.70;84.10;;;;;;5075687;28;21037;-84
2023/03/18 04:32:04;;;;;;;11.07;4.50;;;2.70;84.30;;;;;;5076884;28;20222;-76
2023/03/18 04:34:30;;;;;;;6.83;4.60;;;2.80;84.20;;;;;;5076491;28;20538;-73
2023/03/18 04:36:57;;;;;;;5.47;4.43;;;2.70;84.40;;;;;;5076564;28;20182;-87
2023/03/18 04:39:22;;;;;;;6.23;4.23;;;2.60;84.40;;;;;;5079635;28;20185;-86
2023/03/18 04:41:48;;;;;;;6.67;4.80;;;2.70;84.40;;;;;;5098457;28;20178;-85
2023/03/18 04:44:14;;;;;;;6.73;4.93;;;2.60;84.60;;;;;;5096620;28;20231;-86
2023/03/18 04:46:40;;;;;;;7.17;5.33;;;2.60;84.50;;;;;;5097233;28;20224;-86
2023/03/18 04:49:05;;;;;;;7.90;5.13;;;2.60;84.80;;;;;;5099264;28;20533;-83
2023/03/18 04:51:31;;;;;;;8.47;4.87;;;2.60;84.80;;;;;;5108471;28;20205;-86
2023/03/18 04:53:57;;;;;;;8.50;4.70;;;2.50;84.90;;;;;;5111589;28;20204;-87
2023/03/18 04:56:23;;;;;;;8.60;4.53;;;2.40;85.10;;;;;;5102255;28;20239;-87
2023/03/18 04:58:48;;;;;;;6.87;5.00;;;2.50;85.10;;;;;;5106048;28;20982;-87
2023/03/18 05:01:14;;;;;;;5.37;4.40;;;2.60;84.90;;;;;;5097936;28;20243;-81
2023/03/18 05:03:40;;;;;;;6.37;4.97;;;2.60;84.80;;;;;;5092889;28;20182;-74
2023/03/18 05:06:08;;;;;;;7.13;4.77;;;2.60;85.10;;;;;;5092739;28;20174;-74
2023/03/18 05:08:34;;;;;;;9.03;5.20;;;2.60;84.60;;;;;;5099244;28;20657;-73
2023/03/18 05:11:00;;;;;;;9.03;4.27;;;2.60;84.50;;;;;;5094372;28;20177;-75
2023/03/18 05:13:25;;;;;;;6.30;4.77;;;2.50;84.30;;;;;;5092567;28;20206;-73
2023/03/18 05:15:51;;;;;;;8.70;5.20;;;2.30;84.90;;;;;;5086220;28;20187;-78
2023/03/18 05:18:17;;;;;;;4.43;3.87;;;2.40;84.80;;;;;;5072469;28;20612;-74
2023/03/18 05:20:43;;;;;;;5.83;4.90;;;2.50;84.70;;;;;;5075569;28;20247;-72
2023/03/18 05:23:09;;;;;;;7.03;4.90;;;2.40;84.90;;;;;;5093637;28;20184;-75
2023/03/18 05:25:35;;;;;;;7.87;4.87;;;2.30;85.10;;;;;;5100351;28;20233;-84
2023/03/18 05:28:01;;;;;;;7.53;4.90;;;2.30;85.30;;;;;;5074878;28;20268;-77
2023/03/18 05:30:27;;;;;;;7.13;4.90;;;2.30;85.50;;;;;;5074771;28;20168;-74
2023/03/18 05:32:53;;;;;;;9.00;4.83;;;2.40;85.60;;;;;;5095710;28;20212;-85
2023/03/18 05:35:20;;;;;;;5.90;4.77;;;2.40;85.60;;;;;;5099235;28;20243;-83
2023/03/18 05:37:46;;;;;;;7.83;4.63;;;2.40;85.70;;;;;;5099989;28;20192;-86
2023/03/18 05:40:13;;;;;;;4.80;4.23;;;2.30;86.00;;;;;;5096914;28;20255;-85
2023/03/18 05:42:42;;;;;;;4.27;3.87;;;2.30;86.20;;;;;;5097248;28;20199;-85
2023/03/18 05:45:08;;;;;;;6.77;4.57;;;2.30;86.10;;;;;;5097850;28;20732;-87
2023/03/18 05:47:33;;;;;;;6.87;4.70;;;2.40;86.20;;;;;;5099393;28;20656;-87
2023/03/18 05:50:01;;;;;;;5.87;4.37;;;2.40;86.10;;;;;;5103371;28;20177;-83
2023/03/18 05:52:28;;;;;;;8.63;4.97;;;2.50;86.30;;;;;;5116660;28;20285;-80
2023/03/18 05:54:54;;;;;;;4.77;4.37;;;2.50;86.30;;;;;;5117577;28;20161;-85
2023/03/18 05:57:20;;;;;;;7.80;4.80;;;2.50;86.20;;;;;;5082861;28;20232;-83
2023/03/18 05:59:46;;;;;;;6.33;4.37;;;2.50;86.30;;;;;;5059475;28;20230;-80
2023/03/18 06:02:12;;;;;;;6.10;4.63;;;2.50;86.30;;;;;;5077649;28;20734;-78
2023/03/18 06:04:39;;;;;;;6.33;4.87;;;2.60;86.00;;;;;;5076617;28;20209;-78
2023/03/18 06:07:05;;;;;;;7.97;4.70;;;2.60;85.90;;;;;;5058768;28;20229;-82
2023/03/18 06:09:32;;;;;;;5.23;4.73;;;2.60;86.10;;;;;;5076959;28;20177;-88
2023/03/18 06:11:58;;;;;;;5.03;4.53;;;2.80;86.10;;;;;;5076430;28;20211;-88
2023/03/18 06:14:28;;;;;;;6.80;4.93;;;2.80;85.50;;;;;;5076751;28;20163;-86
2023/03/18 06:16:58;;;;;;;5.33;4.33;;;2.90;85.40;;;;;;5082741;28;20176;-86
2023/03/18 06:19:24;;;;;;;6.73;5.60;;;2.90;85.50;;;;;;5077289;28;20546;-81
2023/03/18 06:21:51;;;;;;;7.47;4.47;;;2.90;85.40;;;;;;5076537;28;20245;-87
2023/03/18 06:24:17;;;;;;;5.43;4.60;;;3.10;85.40;;;;;;5058573;28;20183;-84
2023/03/18 06:26:43;;;;;;;5.97;4.27;;;3.20;85.20;;;;;;5078580;28;20642;-72
2023/03/18 06:29:09;;;;;;;5.60;4.93;;;3.20;84.80;;;;;;5083974;28;20174;-76
2023/03/18 06:31:36;;;;;;;5.97;4.30;;;3.30;84.70;;;;;;5092309;28;20208;-73
2023/03/18 06:34:03;;;;;;;8.73;4.50;;;3.30;84.40;;;;;;5097142;28;20179;-77
2023/03/18 06:36:29;;;;;;;7.17;5.07;;;3.30;84.40;;;;;;5096559;28;20174;-84
2023/03/18 06:38:55;;;;;;;4.37;3.77;;;3.40;84.60;;;;;;5080036;28;20184;-78
2023/03/18 06:41:21;;;;;;;5.40;4.73;;;3.60;83.50;;;;;;5114051;28;20185;-76
2023/03/18 06:43:49;;;;;;;6.03;5.10;;;3.70;83.40;;;;;;5107442;28;20244;-86
2023/03/18 06:46:16;;;;;;;6.23;4.70;;;3.80;83.50;;;;;;5079567;28;20182;-83
2023/03/18 06:48:41;;;;;;;7.37;4.70;;;3.80;83.30;;;;;;5098217;28;20212;-83
2023/03/18 06:51:07;;;;;;;7.20;4.43;;;3.90;84.00;;;;;;5095243;28;20243;-81
2023/03/18 06:53:35;;;;;;;5.80;4.27;;;4.10;83.40;;;;;;5080970;28;20217;-76
2023/03/18 06:56:02;;;;;;;7.50;4.70;;;4.30;86.50;;;;;;5080327;28;20190;-76
2023/03/18 06:58:27;;;;;;;5.93;4.80;;;4.40;83.60;;;;;;5097342;28;20272;-75
2023/03/18 07:00:54;;;;;;;6.77;4.50;;;4.50;84.40;;;;;;5109111;28;20177;-76
2023/03/18 07:03:20;;;;;;;5.13;4.57;;;4.70;82.90;;;;;;5078546;28;20637;-84
2023/03/18 07:05:46;;;;;;;7.33;4.73;;;4.80;82.40;;;;;;5096557;28;20169;-82
2023/03/18 07:08:12;;;;;;;5.50;4.53;;;4.90;83.30;;;;;;5094989;28;20691;-80
2023/03/18 07:10:38;;;;;;;7.23;4.63;;;5.00;82.90;;;;;;5095096;28;20621;-83
2023/03/18 07:13:04;;;;;;;7.60;4.97;;;5.10;82.30;;;;;;5094756;28;20213;-86
2023/03/18 07:15:30;;;;;;;7.33;5.30;;;5.20;80.40;;;;;;5095946;28;20175;-78
2023/03/18 07:17:56;;;;;;;6.67;5.20;;;5.30;81.00;;;;;;5079800;28;20211;-80
2023/03/18 07:20:22;;;;;;;5.97;4.90;;;5.40;81.00;;;;;;5075612;28;20273;-79
2023/03/18 07:22:49;;;;;;;6.30;4.60;;;5.50;79.90;;;;;;5076959;28;20213;-86
2023/03/18 07:25:14;;;;;;;6.00;4.77;;;5.50;79.50;;;;;;5079126;28;20175;-74
2023/03/18 07:27:41;;;;;;;5.90;5.07;;;5.70;80.80;;;;;;5081624;28;20240;-77
2023/03/18 07:30:08;;;;;;;6.00;5.07;;;5.70;79.30;;;;;;5086367;28;20232;-73
2023/03/18 07:32:35;;;;;;;7.67;4.83;;;5.70;78.50;;;;;;5079598;28;20217;-85
2023/03/18 07:35:03;;;;;;;6.13;4.73;;;5.80;78.60;;;;;;5075499;28;20179;-78
2023/03/18 07:37:29;;;;;;;5.93;5.20;;;5.90;79.30;;;;;;5086031;28;20182;-84
2023/03/18 07:39:55;;;;;;;8.13;4.90;;;5.80;79.20;;;;;;5094838;28;20178;-84
2023/03/18 07:42:21;;;;;;;6.53;4.93;;;5.90;79.10;;;;;;5094241;28;20189;-82
2023/03/18 07:44:47;;;;;;;7.20;4.97;;;6.00;78.10;;;;;;5094537;28;20219;-81
2023/03/18 07:47:13;;;;;;;7.40;5.10;;;6.00;77.70;;;;;;5094378;28;20269;-82
2023/03/18 07:49:40;;;;;;;6.67;4.87;;;6.10;77.30;;;;;;5094675;28;20577;-76
2023/03/18 07:52:07;;;;;;;5.20;4.30;;;6.20;77.50;;;;;;5094070;28;20811;-75
2023/03/18 07:54:33;;;;;;;5.10;4.53;;;6.20;76.30;;;;;;5093976;28;20174;-74
2023/03/18 07:56:59;;;;;;;6.47;4.70;;;6.30;77.70;;;;;;5093601;28;20182;-76
2023/03/18 07:59:25;;;;;;;5.23;4.83;;;6.40;77.60;;;;;;5094239;28;20202;-74
2023/03/18 08:01:51;;;;;;;8.07;5.80;;;6.50;77.50;;;;;;5100495;28;20530;-75
2023/03/18 08:04:18;;;;;;;7.57;5.37;;;6.60;78.10;;;;;;5078751;28;20655;-77
2023/03/18 08:06:43;;;;;;;6.33;4.97;;;6.70;77.90;;;;;;5095656;28;20174;-74
2023/03/18 08:09:09;;;;;;;6.43;4.67;;;6.90;75.70;;;;;;5096164;28;20168;-75
2023/03/18 08:11:35;;;;;;;9.47;5.50;;;6.90;75.50;;;;;;5096653;28;20221;-77
2023/03/18 08:14:01;;;;;;;6.20;4.97;;;6.90;76.60;;;;;;5087041;28;20232;-81
2023/03/18 08:16:28;;;;;;;6.43;5.10;;;6.90;75.10;;;;;;5099582;28;20164;-76
2023/03/18 08:18:54;;;;;;;8.03;5.00;;;7.10;74.50;;;;;;5081216;28;20252;-77
2023/03/18 08:21:20;;;;;;;7.70;5.33;;;7.20;74.80;;;;;;5100806;28;20632;-79
2023/03/18 08:23:46;;;;;;;7.43;5.43;;;7.30;75.60;;;;;;5080564;28;20190;-74
2023/03/18 08:26:12;;;;;;;7.40;5.43;;;7.50;75.30;;;;;;5079800;28;20213;-78
2023/03/18 08:28:38;;;;;;;11.07;7.17;;;7.60;75.30;;;;;;5078707;28;20200;-74
2023/03/18 08:31:08;;;;;;;9.90;7.03;;;7.60;80.00;;;;;;5077710;28;20196;-78
2023/03/18 08:33:34;;;;;;;10.53;6.80;;;7.70;78.10;;;;;;5099473;28;20213;-83
2023/03/18 08:36:00;;;;;;;8.03;6.07;;;7.80;83.50;;;;;;5114173;28;20210;-82
2023/03/18 08:38:26;;;;;;;7.30;5.40;;;7.90;84.90;;;;;;5115652;28;20291;-84
2023/03/18 08:40:51;;;;;;;7.33;5.43;;;8.10;80.90;;;;;;5098013;28;20177;-75
2023/03/18 08:43:20;;;;;;;7.30;5.67;;;8.30;79.60;;;;;;5081088;28;20396;-73
2023/03/18 08:45:53;;;;;;;8.70;6.17;;;8.50;79.00;;;;;;5075731;28;20244;-74
2023/03/18 08:48:19;;;;;;;7.77;5.70;;;8.60;79.00;;;;;;5077705;28;20623;-73
2023/03/18 08:50:45;;;;;;;6.90;5.00;;;8.70;77.40;;;;;;5077053;28;20181;-79
2023/03/18 08:53:12;;;;;;;7.70;5.50;;;8.80;74.40;;;;;;5079111;28;20230;-89
2023/03/18 08:55:38;;;;;;;6.27;5.23;;;8.80;74.40;;;;;;5077354;28;20176;-85
2023/03/18 08:58:05;;;;;;;6.47;5.80;;;8.80;73.70;;;;;;5079275;28;20167;-78
2023/03/18 09:00:33;;;;;;;6.50;5.33;;;8.80;74.00;;;;;;5088311;28;20175;-75
2023/03/18 09:02:59;;;;;;;11.67;7.70;;;8.70;75.40;;;;;;5078593;28;20174;-86
2023/03/18 09:05:25;;;;;;;7.17;5.80;;;8.70;75.80;;;;;;5077135;28;20164;-88
2023/03/18 09:07:52;;;;;;;8.93;5.83;;;8.80;74.00;;;;;;5084729;28;20172;-77
2023/03/18 09:10:18;;;;;;;7.17;5.50;;;8.80;73.30;;;;;;5085216;28;20187;-84
2023/03/18 09:12:45;;;;;;;6.53;5.53;;;8.80;73.50;;;;;;5080607;28;20702;-85
2023/03/18 09:15:13;;;;;;;7.63;5.30;;;8.90;73.90;;;;;;5083347;28;20163;-84
2023/03/18 09:17:40;;;;;;;6.13;5.53;;;9.10;72.90;;;;;;5075807;28;20187;-88
2023/03/18 09:20:08;;;;;;;6.47;5.33;;;9.20;72.20;;;;;;5080481;28;20175;-77
2023/03/18 09:22:34;;;;;;;9.57;5.07;;;9.20;71.80;;;;;;5065700;28;20187;-86
2023/03/18 09:25:00;;;;;;;6.83;5.03;;;9.20;71.90;;;;;;5075229;28;20623;-87
2023/03/18 09:27:27;;;;;;;7.87;5.50;;;9.30;71.80;;;;;;5074645;28;20239;-83
2023/03/18 09:29:52;;;;;;;6.77;5.50;;;9.30;71.80;;;;;;5074697;28;20183;-76
2023/03/18 09:32:18;;;;;;;6.93;5.80;;;9.30;72.10;;;;;;5074436;28;20210;-83
2023/03/18 09:34:45;;;;;;;7.70;5.43;;;9.40;72.40;;;;;;5078710;28;20240;-80
2023/03/18 09:37:12;;;;;;;6.03;5.07;;;9.50;72.90;;;;;;5087173;28;20203;-88
2023/03/18 09:39:38;;;;;;;7.37;5.40;;;9.50;73.20;;;;;;5076274;28;20197;-88
2023/03/18 09:42:07;;;;;;;7.20;5.20;;;9.50;72.90;;;;;;5056712;28;20208;-87
2023/03/18 09:44:35;;;;;;;5.90;5.30;;;9.60;71.10;;;;;;5074639;28;20231;-85
2023/03/18 09:47:13;;;;;;;5.20;4.27;;;9.60;71.50;;;;;;5091002;28;20685;-82
2023/03/18 09:50:09;;;;;;;6.50;5.63;;;9.50;71.50;;;;;;5084032;28;20204;-87
2023/03/18 09:53:10;;;;;;;8.20;5.40;;;9.50;72.30;;;;;;5075637;28;20189;-88
2023/03/18 09:55:54;;;;;;;7.17;5.40;;;9.50;72.50;;;;;;5034994;28;20184;-84
2023/03/18 09:58:28;;;;;;;6.63;5.60;;;9.40;73.40;;;;;;5073135;28;20243;-82
2023/03/18 10:01:02;;;;;;;7.80;5.60;;;9.50;72.30;;;;;;5072771;28;20510;-88
2023/03/18 10:03:38;;;;;;;6.87;5.90;;;9.60;71.90;;;;;;5075080;28;20261;-86
2023/03/18 10:06:18;;;;;;;6.57;5.77;;;9.50;72.10;;;;;;5077130;28;20158;-79
2023/03/18 10:08:50;;;;;;;6.27;4.90;;;9.50;72.50;;;;;;5077201;28;20171;-84
2023/03/18 10:11:25;;;;;;;6.30;4.93;;;9.50;71.80;;;;;;5087820;28;20152;-80
2023/03/18 10:14:16;;;;;;;5.87;5.07;;;9.60;71.30;;;;;;5089877;28;20197;-79
2023/03/18 10:17:11;;;;;;;6.00;5.40;;;9.60;72.00;;;;;;5083430;28;20192;-87
2023/03/18 10:19:41;;;;;;;5.60;4.70;;;9.60;70.20;;;;;;5066360;28;20223;-85
2023/03/18 10:22:26;;;;;;;7.73;5.30;;;9.50;70.70;;;;;;5078848;28;20175;-88
2023/03/18 10:25:06;;;;;;;5.83;4.90;;;9.70;70.90;;;;;;5078448;28;20170;-88
2023/03/18 10:27:54;;;;;;;6.30;5.27;;;9.70;71.20;;;;;;5079305;28;20163;-88
2023/03/18 10:30:43;;;;;;;8.97;6.07;;;9.70;70.70;;;;;;5079524;28;20593;-88
2023/03/18 10:33:20;;;;;;;7.00;5.00;;;9.70;71.40;;;;;;5077336;28;20647;-84
2023/03/18 10:36:06;;;;;;;9.20;5.53;;;9.90;71.60;;;;;;5058925;28;20526;-86
2023/03/18 10:38:43;;;;;;;6.33;4.33;;;10.00;70.30;;;;;;5077740;28;20584;-87
2023/03/18 10:41:21;;;;;;;7.53;5.33;;;10.10;69.20;;;;;;5058681;28;20173;-83
2023/03/18 10:43:50;;;;;;;6.57;4.97;;;10.10;69.20;;;;;;5076471;28;20217;-80
2023/03/18 10:46:19;;;;;;;5.63;5.13;;;10.00;69.50;;;;;;5079518;28;20236;-77
2023/03/18 10:49:01;;;;;;;6.73;5.07;;;10.00;69.40;;;;;;5073063;28;20198;-85
2023/03/18 10:51:39;;;;;;;7.10;5.53;;;10.20;69.20;;;;;;5078112;28;20283;-84
2023/03/18 10:54:14;;;;;;;7.93;5.50;;;10.00;68.70;;;;;;5077024;28;20214;-84
2023/03/18 10:56:40;;;;;;;5.70;4.80;;;10.10;69.40;;;;;;5076627;28;20191;-88
2023/03/18 10:59:17;;;;;;;7.53;5.80;;;10.20;69.40;;;;;;5077486;28;20169;-81
2023/03/18 11:01:46;;;;;;;6.00;5.17;;;10.30;68.40;;;;;;5079443;28;20169;-84
2023/03/18 11:04:16;;;;;;;6.77;5.47;;;10.30;68.40;;;;;;5084437;28;20167;-77
2023/03/18 11:07:01;;;;;;;6.67;5.70;;;10.30;68.40;;;;;;5090142;28;20594;-74
2023/03/18 11:09:35;;;;;;;6.03;5.43;;;10.50;69.00;;;;;;5092043;28;20193;-74
2023/03/18 11:12:05;;;;;;;6.03;5.27;;;10.40;68.40;;;;;;5083929;28;20284;-85
2023/03/18 11:14:32;;;;;;;9.63;5.73;;;10.50;68.40;;;;;;5079734;28;20225;-81
2023/03/18 11:17:16;;;;;;;6.00;5.20;;;10.50;69.20;;;;;;5063085;28;20182;-83
2023/03/18 11:19:48;;;;;;;6.30;5.40;;;10.50;70.20;;;;;;5084410;28;20169;-74
2023/03/18 11:22:23;;;;;;;7.40;5.97;;;10.60;70.60;;;;;;5084681;28;20176;-77
2023/03/18 11:25:15;;;;;;;8.83;5.73;;;10.70;70.60;;;;;;5086086;28;20185;-79
2023/03/18 11:27:56;;;;;;;7.03;5.23;;;10.90;69.90;;;;;;5084590;28;20243;-80
2023/03/18 11:30:27;;;;;;;7.73;5.63;;;10.90;69.40;;;;;;5078282;28;20235;-79
2023/03/18 11:33:16;;;;;;;8.40;5.27;;;10.90;69.80;;;;;;5075948;28;20249;-76
2023/03/18 11:35:57;;;;;;;6.20;5.60;;;11.00;70.00;;;;;;5062785;28;20209;-76
2023/03/18 11:38:34;;;;;;;7.57;5.20;;;11.00;68.80;;;;;;5058332;28;20230;-88
2023/03/18 11:41:15;;;;;;;5.77;5.13;;;11.20;67.40;;;;;;5060080;28;20206;-87
2023/03/18 11:44:02;;;;;;;7.53;5.20;;;11.20;68.50;;;;;;5078330;28;20185;-88
2023/03/18 11:46:37;;;;;;;7.07;5.33;;;11.20;68.80;;;;;;5074564;28;20220;-84
2023/03/18 11:49:03;;;;;;;8.60;5.33;;;11.10;68.70;;;;;;5096847;28;20214;-75
2023/03/18 11:51:43;;;;;;;8.83;5.80;;;11.10;68.50;;;;;;5059877;28;20223;-74
2023/03/18 11:54:54;;;;;;;7.67;5.60;;;11.20;68.10;;;;;;5076072;28;20328;-75
2023/03/18 11:57:35;;;;;;;5.97;5.27;;;11.30;68.60;;;;;;5058533;28;20538;-75
2023/03/18 12:00:06;;;;;;;7.57;5.77;;;11.40;67.80;;;;;;5073974;28;20207;-74
2023/03/18 12:02:55;;;;;;;8.00;5.60;;;11.40;67.30;;;;;;5074003;28;20174;-73
2023/03/18 12:05:45;;;;;;;5.33;4.90;;;11.50;66.90;;;;;;5061030;28;20252;-74
2023/03/18 12:08:42;;;;;;;6.23;5.43;;;11.50;67.40;;;;;;5075782;28;20175;-74
2023/03/18 12:11:18;;;;;;;10.33;5.47;;;11.50;68.00;;;;;;5074579;28;20255;-73
2023/03/18 12:13:44;;;;;;;7.40;5.70;;;11.60;67.30;;;;;;5073656;28;20285;-71
2023/03/18 12:16:28;;;;;;;6.40;5.57;;;11.50;66.90;;;;;;5074078;28;20304;-87
2023/03/18 12:19:35;;;;;;;7.07;5.23;;;11.50;67.40;;;;;;5077439;28;20167;-88
2023/03/18 12:22:06;;;;;;;6.53;5.77;;;11.60;67.20;;;;;;5077929;28;20167;-85
2023/03/18 12:24:40;;;;;;;7.40;5.87;;;11.70;68.30;;;;;;5077584;28;20575;-80
2023/03/18 12:27:15;;;;;;;7.07;5.53;;;11.80;67.20;;;;;;5086373;28;20664;-74
2023/03/18 12:30:06;;;;;;;7.43;5.00;;;11.80;66.70;;;;;;5081205;28;20211;-84
2023/03/18 12:32:44;;;;;;;8.30;5.47;;;11.80;66.40;;;;;;5076617;28;20292;-82
2023/03/18 12:35:15;;;;;;;8.83;5.60;;;11.80;66.90;;;;;;5075120;28;20152;-83
2023/03/18 12:38:13;;;;;;;7.60;5.77;;;11.70;67.10;;;;;;5077622;28;20564;-81
2023/03/18 12:41:26;;;;;;;6.63;5.57;;;11.80;66.80;;;;;;5033442;28;20638;-82
2023/03/18 12:44:20;;;;;;;8.30;6.40;;;11.80;67.20;;;;;;5086951;28;20223;-86
2023/03/18 12:46:59;;;;;;;9.73;6.00;;;12.00;67.20;;;;;;5075734;28;20622;-74
2023/03/18 12:49:41;;;;;;;8.80;6.40;;;12.00;66.80;;;;;;5075848;28;20635;-77
2023/03/18 12:52:19;;;;;;;8.37;6.40;;;12.10;66.70;;;;;;5076100;28;20190;-78
2023/03/18 12:55:00;;;;;;;8.70;6.67;;;12.10;66.90;;;;;;5092511;28;20162;-75
2023/03/18 12:58:01;;;;;;;11.27;7.13;;;12.10;67.50;;;;;;5079363;28;20164;-82
2023/03/18 13:00:42;;;;;;;7.93;5.90;;;12.10;67.40;;;;;;5066531;28;20316;-83
2023/03/18 13:03:27;;;;;;;7.50;6.20;;;12.10;67.20;;;;;;5088305;28;20258;-83
2023/03/18 13:06:26;;;;;;;8.73;5.63;;;12.10;67.70;;;;;;5084126;28;20170;-85
2023/03/18 13:09:10;;;;;;;7.93;6.50;;;12.10;67.80;;;;;;5047837;28;20184;-88
2023/03/18 13:11:58;;;;;;;8.20;5.97;;;12.10;67.10;;;;;;5087093;28;20170;-77